Home   Weather   USA   Bullhead City   Past weeks
Flag for USA

Past Weather in Bullhead City, Arizona, USA — Yesterday and Last 2 Weeks

Currently: 91 °F. Clear. (Weather station: Laughlin/Bullhead International Airport, USA). See more current weather

Past Weather in Bullhead City — Graph

°F

Bullhead City Temperature Yesterday

Maximum temperature yesterday: 111 °F (at 2:48 pm)
Minimum temperature yesterday: 86 °F (at 4:55 am)
Average temperature yesterday: 97 °F

High & Low Weather Summary for the Past Weeks

 TemperatureHumidityPressure
High111 °F (Jul 20, 3:48 pm)89% (Jul 26, 7:35 am)29.98 "Hg (Jul 26, 7:35 am)
Low75 °F (Jul 26, 7:49 am)11% (Jul 29, 4:47 pm)29.65 "Hg (Jul 16, 5:55 pm)
Average95 °F34%29.85 "Hg
* Reported Jul 15 2:30 am — Jul 30 2:55 am, Bullhead City. Weather by CustomWeather, © 2021

Note: Actual official high and low records may vary slightly from our data, if they occured in-between our weather recording intervals... More about our weather records

Bullhead City Weather History for the Previous 24 Hours

Scroll right to see more
 ConditionsComfort  
Time TempWeatherWind HumidityBarometerVisibility
2:55 am
Fri, Jul 30
91 °FClear.14 mph36%29.85 "Hg10 mi
12:45 am93 °FClear.15 mph30%29.86 "Hg10 mi
12:35 am93 °FClear.16 mph30%29.86 "Hg10 mi
12:15 am95 °FClear.18 mph28%29.86 "Hg10 mi
11:55 pm
Thu, Jul 29
95 °FClear.20 mph28%29.86 "Hg10 mi
11:15 pm95 °FClear.14 mph28%29.87 "Hg10 mi
10:50 pm95 °FPassing clouds.14 mph28%29.88 "Hg10 mi
10:25 pm93 °FPartly cloudy.No wind32%29.87 "Hg10 mi
10:15 pm93 °FLight rain. Partly cloudy.5 mph34%29.87 "Hg6 mi
9:50 pm99 °FPassing clouds.3 mph24%29.84 "Hg10 mi
9:30 pm99 °FPassing clouds.5 mph24%29.84 "Hg10 mi
9:15 pm99 °FPassing clouds.5 mph24%29.83 "Hg10 mi
8:50 pm99 °FPassing clouds.12 mph24%29.81 "Hg10 mi
8:10 pm100 °FPassing clouds.22 mph22%29.78 "Hg10 mi
7:50 pm102 °FClear.17 mph20%29.77 "Hg10 mi
7:35 pm102 °FSunny.13 mph20%29.76 "Hg10 mi
7:15 pm100 °FSunny.15 mph21%29.76 "Hg10 mi
6:40 pm102 °FSunny.29 mph20%29.69 "Hg10 mi
6:35 pm104 °FSunny.29 mph19%29.68 "Hg10 mi
6:15 pm104 °FSunny.32 mph19%29.67 "Hg10 mi
5:48 pm104 °FPartly sunny.28 mph20%29.67 "Hg20 mi
4:47 pm111 °FPartly sunny.7 mph11%29.68 "Hg20 mi
3:48 pm111 °FBroken clouds.9 mph12%29.70 "Hg10 mi
2:48 pm111 °FScattered clouds.12 mph13%29.73 "Hg10 mi
1:50 pm109 °FPartly sunny.14 mph15%29.75 "Hg20 mi
12:48 pm108 °FBroken clouds.7 mph15%29.79 "Hg10 mi
11:48 am104 °FBroken clouds.5 mph19%29.82 "Hg10 mi
10:49 am102 °FScattered clouds.7 mph20%29.83 "Hg20 mi
9:47 am99 °FScattered clouds.No wind22%29.85 "Hg20 mi
8:50 am95 °FScattered clouds.No wind26%29.85 "Hg20 mi
7:48 am91 °FPassing clouds.No wind30%29.85 "Hg10 mi
7:35 am91 °FSunny.No wind30%29.85 "Hg10 mi
7:15 am91 °FSunny.No wind30%29.85 "Hg10 mi
6:55 am90 °FSunny.No wind33%29.85 "Hg10 mi
6:35 am88 °FSunny.No wind35%29.85 "Hg10 mi
6:10 am88 °FSunny.No wind35%29.84 "Hg10 mi
Weather by CustomWeather, © 2021

See weather overview